DLH2250 LHBP-EDDF
Flight info
| Callsign | DLH2250 |
|---|---|
| Flight time | 1h 27m |
| Altitude | 34000 |
| Route | GILEP DCT ZOLKU DCT BEGLA DCT DITID DCT RAPET T170 VAGAB T170 GAPLA T178 KERAX |
| Aircraft | A321/M-SDE/L |
Departure
| Time | 2026-05-04 18:43 |
|---|---|
| Airport | Budapest Liszt Ferenc International Airport (LHBP) |
Arrival
| Time | 2026-05-04 20:10 |
|---|---|
| Airport | Frankfurt Main Airport (EDDF) |
| Time | Latitude | Longitude | Altitude | Speed | Heading |
|---|---|---|---|---|---|
| 2026-05-04 18:13 | 47.43387 | 19.25799 | 469 ft | 0 kts | 221° |
| 2026-05-04 18:30 | 47.43401 | 19.25817 | 470 ft | 2 kts | 221° |
| 2026-05-04 18:30 | 47.43412 | 19.25832 | 470 ft | 2 kts | 221° |
| 2026-05-04 18:30 | 47.43423 | 19.25847 | 470 ft | 2 kts | 221° |
| 2026-05-04 18:31 | 47.43435 | 19.25862 | 471 ft | 2 kts | 236° |
| 2026-05-04 18:31 | 47.43440 | 19.25883 | 472 ft | 2 kts | 267° |
| 2026-05-04 18:31 | 47.43437 | 19.25905 | 472 ft | 2 kts | 296° |
| 2026-05-04 18:31 | 47.43433 | 19.25916 | 472 ft | 1 kts | 312° |
| 2026-05-04 18:32 | 47.43429 | 19.25921 | 472 ft | 0 kts | 311° |
| 2026-05-04 18:34 | 47.43433 | 19.25913 | 472 ft | 0 kts | 311° |
| 2026-05-04 18:35 | 47.43434 | 19.25913 | 472 ft | 0 kts | 312° |
| 2026-05-04 18:35 | 47.43441 | 19.25902 | 472 ft | 0 kts | 312° |
| 2026-05-04 18:35 | 47.43444 | 19.25896 | 472 ft | 0 kts | 312° |
| 2026-05-04 18:37 | 47.43445 | 19.25895 | 472 ft | 1 kts | 312° |
| 2026-05-04 18:38 | 47.43458 | 19.25874 | 472 ft | 4 kts | 312° |
| 2026-05-04 18:38 | 47.43479 | 19.25824 | 471 ft | 7 kts | 296° |
| 2026-05-04 18:38 | 47.43514 | 19.25750 | 471 ft | 9 kts | 311° |
| 2026-05-04 18:38 | 47.43571 | 19.25714 | 472 ft | 9 kts | 24° |
| 2026-05-04 18:39 | 47.43623 | 19.25762 | 474 ft | 9 kts | 41° |
| 2026-05-04 18:39 | 47.43674 | 19.25830 | 475 ft | 10 kts | 42° |
| 2026-05-04 18:39 | 47.43734 | 19.25910 | 476 ft | 12 kts | 43° |
| 2026-05-04 18:39 | 47.43800 | 19.26001 | 478 ft | 13 kts | 42° |
| 2026-05-04 18:40 | 47.43864 | 19.26089 | 479 ft | 8 kts | 43° |
| 2026-05-04 18:40 | 47.43911 | 19.26153 | 478 ft | 10 kts | 42° |
| 2026-05-04 18:40 | 47.43970 | 19.26232 | 478 ft | 6 kts | 41° |
| 2026-05-04 18:40 | 47.43984 | 19.26250 | 478 ft | 0 kts | 41° |
| 2026-05-04 18:41 | 47.43988 | 19.26255 | 478 ft | 1 kts | 41° |
| 2026-05-04 18:42 | 47.44004 | 19.26276 | 478 ft | 4 kts | 41° |
| 2026-05-04 18:42 | 47.44038 | 19.26327 | 479 ft | 8 kts | 52° |
| 2026-05-04 18:42 | 47.44064 | 19.26434 | 479 ft | 14 kts | 86° |
| 2026-05-04 18:42 | 47.44024 | 19.26596 | 477 ft | 20 kts | 131° |
| 2026-05-04 18:43 | 47.43778 | 19.26987 | 469 ft | 92 kts | 133° |
| 2026-05-04 18:43 | 47.43181 | 19.27949 | 441 ft | 160 kts | 132° |
| 2026-05-04 18:43 | 47.42371 | 19.29300 | 829 ft | 182 kts | 134° |
| 2026-05-04 18:43 | 47.41549 | 19.30706 | 1569 ft | 186 kts | 128° |
| 2026-05-04 18:44 | 47.40955 | 19.32338 | 2523 ft | 179 kts | 118° |
| 2026-05-04 18:44 | 47.40602 | 19.33462 | 2940 ft | 186 kts | 120° |
| 2026-05-04 18:44 | 47.39758 | 19.35824 | 3645 ft | 207 kts | 121° |
| 2026-05-04 18:44 | 47.39044 | 19.37746 | 4145 ft | 225 kts | 121° |
| 2026-05-04 18:45 | 47.38097 | 19.39739 | 4552 ft | 247 kts | 141° |
| 2026-05-04 18:45 | 47.36566 | 19.40845 | 5386 ft | 249 kts | 170° |
| 2026-05-04 18:45 | 47.34875 | 19.40703 | 6267 ft | 251 kts | 198° |
| 2026-05-04 18:45 | 47.33408 | 19.39323 | 7086 ft | 257 kts | 227° |
| 2026-05-04 18:46 | 47.32449 | 19.37100 | 7937 ft | 262 kts | 239° |
| 2026-05-04 18:46 | 47.31576 | 19.34721 | 8706 ft | 267 kts | 240° |
| 2026-05-04 18:46 | 47.30684 | 19.32294 | 9489 ft | 271 kts | 240° |
| 2026-05-04 18:46 | 47.29927 | 19.29736 | 10258 ft | 276 kts | 258° |
| 2026-05-04 18:47 | 47.30087 | 19.26948 | 10998 ft | 281 kts | 288° |
| 2026-05-04 18:47 | 47.30837 | 19.24263 | 11808 ft | 284 kts | 292° |
| 2026-05-04 18:47 | 47.31635 | 19.21594 | 12495 ft | 289 kts | 292° |
| 2026-05-04 18:47 | 47.32423 | 19.18861 | 13224 ft | 293 kts | 291° |
| 2026-05-04 18:48 | 47.33200 | 19.16045 | 13966 ft | 296 kts | 291° |
| 2026-05-04 18:48 | 47.33945 | 19.13253 | 14723 ft | 298 kts | 290° |
| 2026-05-04 18:48 | 47.34705 | 19.10348 | 15296 ft | 309 kts | 290° |
| 2026-05-04 18:48 | 47.35495 | 19.07290 | 15615 ft | 327 kts | 290° |
| 2026-05-04 18:49 | 47.36321 | 19.04070 | 15914 ft | 344 kts | 290° |
| 2026-05-04 18:49 | 47.37182 | 19.00695 | 16242 ft | 361 kts | 290° |
| 2026-05-04 18:49 | 47.38082 | 18.97150 | 16713 ft | 373 kts | 290° |
| 2026-05-04 18:49 | 47.38990 | 18.93567 | 17390 ft | 377 kts | 290° |
| 2026-05-04 18:50 | 47.39912 | 18.89919 | 18103 ft | 379 kts | 291° |
| 2026-05-04 18:50 | 47.40823 | 18.86303 | 18849 ft | 382 kts | 291° |
| 2026-05-04 18:50 | 47.41755 | 18.82599 | 19475 ft | 386 kts | 291° |
| 2026-05-04 18:50 | 47.42689 | 18.78891 | 20120 ft | 389 kts | 290° |
| 2026-05-04 18:51 | 47.43640 | 18.75100 | 20753 ft | 392 kts | 290° |
| 2026-05-04 18:51 | 47.44582 | 18.71331 | 21344 ft | 395 kts | 290° |
| 2026-05-04 18:51 | 47.45544 | 18.67481 | 21926 ft | 398 kts | 290° |
| 2026-05-04 18:51 | 47.46505 | 18.63629 | 22480 ft | 402 kts | 290° |
| 2026-05-04 18:52 | 47.47482 | 18.59701 | 23029 ft | 405 kts | 291° |
| 2026-05-04 18:52 | 47.48450 | 18.55801 | 23569 ft | 407 kts | 291° |
| 2026-05-04 18:52 | 47.49441 | 18.51804 | 24098 ft | 410 kts | 291° |
| 2026-05-04 18:52 | 47.50414 | 18.47876 | 24618 ft | 413 kts | 291° |
| 2026-05-04 18:53 | 47.51411 | 18.43840 | 25125 ft | 415 kts | 291° |
| 2026-05-04 18:53 | 47.52412 | 18.39784 | 25588 ft | 418 kts | 291° |
| 2026-05-04 18:53 | 47.53409 | 18.35741 | 26038 ft | 420 kts | 291° |
| 2026-05-04 18:53 | 47.54413 | 18.31651 | 26474 ft | 423 kts | 290° |
| 2026-05-04 18:54 | 47.55414 | 18.27556 | 26898 ft | 425 kts | 290° |
| 2026-05-04 18:54 | 47.56432 | 18.23388 | 27311 ft | 428 kts | 290° |
| 2026-05-04 18:54 | 47.57449 | 18.19219 | 27703 ft | 430 kts | 290° |
| 2026-05-04 18:54 | 47.58472 | 18.15021 | 28099 ft | 432 kts | 290° |
| 2026-05-04 18:55 | 47.59492 | 18.10830 | 28468 ft | 435 kts | 290° |
| 2026-05-04 18:55 | 47.61554 | 18.02336 | 29182 ft | 439 kts | 291° |
| 2026-05-04 18:55 | 47.62596 | 17.98030 | 29643 ft | 438 kts | 291° |
| 2026-05-04 18:56 | 47.63627 | 17.93762 | 30156 ft | 436 kts | 291° |
| 2026-05-04 18:56 | 47.64651 | 17.89516 | 30636 ft | 434 kts | 291° |
| 2026-05-04 18:56 | 47.65664 | 17.85304 | 31095 ft | 433 kts | 291° |
| 2026-05-04 18:56 | 47.66683 | 17.81062 | 31558 ft | 432 kts | 291° |
| 2026-05-04 18:57 | 47.67679 | 17.76905 | 31976 ft | 431 kts | 291° |
| 2026-05-04 18:57 | 47.68681 | 17.72718 | 32388 ft | 430 kts | 291° |
| 2026-05-04 18:57 | 47.69691 | 17.68486 | 32732 ft | 430 kts | 291° |
| 2026-05-04 18:57 | 47.70696 | 17.64275 | 33026 ft | 431 kts | 291° |
| 2026-05-04 18:58 | 47.71690 | 17.60091 | 33315 ft | 432 kts | 291° |
| 2026-05-04 18:58 | 47.72702 | 17.55827 | 33604 ft | 433 kts | 291° |
| 2026-05-04 18:58 | 47.73700 | 17.51616 | 33861 ft | 434 kts | 291° |
| 2026-05-04 18:58 | 47.74708 | 17.47350 | 33966 ft | 435 kts | 291° |
| 2026-05-04 18:59 | 47.76722 | 17.38798 | 33980 ft | 435 kts | 291° |
| 2026-05-04 18:59 | 47.78711 | 17.30302 | 33986 ft | 435 kts | 290° |
| 2026-05-04 19:00 | 47.80759 | 17.21815 | 33986 ft | 434 kts | 293° |
| 2026-05-04 19:00 | 47.83431 | 17.13764 | 33983 ft | 432 kts | 304° |
| 2026-05-04 19:01 | 47.87073 | 17.06700 | 33981 ft | 432 kts | 309° |
| 2026-05-04 19:01 | 47.90865 | 16.99678 | 33967 ft | 432 kts | 309° |
| 2026-05-04 19:02 | 47.94631 | 16.92654 | 33962 ft | 432 kts | 309° |
| 2026-05-04 19:02 | 47.98405 | 16.85568 | 33961 ft | 433 kts | 309° |
| 2026-05-04 19:03 | 48.02153 | 16.78505 | 33956 ft | 433 kts | 309° |
| 2026-05-04 19:03 | 48.05926 | 16.71373 | 33955 ft | 433 kts | 308° |
| 2026-05-04 19:04 | 48.09657 | 16.64297 | 33955 ft | 433 kts | 308° |
| 2026-05-04 19:04 | 48.13399 | 16.57223 | 33954 ft | 433 kts | 309° |
| 2026-05-04 19:05 | 48.17135 | 16.50143 | 33951 ft | 434 kts | 308° |
| 2026-05-04 19:05 | 48.20869 | 16.43024 | 33949 ft | 434 kts | 308° |
| 2026-05-04 19:06 | 48.24614 | 16.35853 | 33947 ft | 435 kts | 308° |
| 2026-05-04 19:06 | 48.28348 | 16.28657 | 33944 ft | 434 kts | 307° |
| 2026-05-04 19:07 | 48.32045 | 16.21514 | 33945 ft | 434 kts | 307° |
| 2026-05-04 19:07 | 48.35708 | 16.14432 | 33933 ft | 434 kts | 307° |
| 2026-05-04 19:08 | 48.39489 | 16.07099 | 33924 ft | 435 kts | 307° |
| 2026-05-04 19:08 | 48.43188 | 15.99909 | 33923 ft | 435 kts | 307° |
| 2026-05-04 19:09 | 48.46899 | 15.92684 | 33925 ft | 435 kts | 307° |
| 2026-05-04 19:09 | 48.50590 | 15.85479 | 33927 ft | 434 kts | 307° |
| 2026-05-04 19:10 | 48.54282 | 15.78250 | 33931 ft | 434 kts | 307° |
| 2026-05-04 19:10 | 48.58004 | 15.70946 | 33933 ft | 442 kts | 307° |
| 2026-05-04 19:11 | 48.61798 | 15.63475 | 33939 ft | 451 kts | 307° |
| 2026-05-04 19:11 | 48.65627 | 15.55915 | 33944 ft | 451 kts | 307° |
| 2026-05-04 19:12 | 48.71341 | 15.44598 | 33945 ft | 452 kts | 307° |
| 2026-05-04 19:13 | 48.75176 | 15.36977 | 33941 ft | 453 kts | 306° |
| 2026-05-04 19:13 | 48.78983 | 15.29370 | 33938 ft | 453 kts | 306° |
| 2026-05-04 19:14 | 48.82788 | 15.21737 | 33935 ft | 453 kts | 306° |
| 2026-05-04 19:14 | 48.86603 | 15.14073 | 33936 ft | 452 kts | 306° |
| 2026-05-04 19:15 | 48.90397 | 15.06442 | 33934 ft | 451 kts | 306° |
| 2026-05-04 19:15 | 48.94185 | 14.98801 | 33932 ft | 451 kts | 305° |
| 2026-05-04 19:16 | 48.97977 | 14.91131 | 33929 ft | 452 kts | 305° |
| 2026-05-04 19:16 | 49.01752 | 14.83474 | 33929 ft | 453 kts | 305° |
| 2026-05-04 19:17 | 49.05556 | 14.75739 | 33938 ft | 454 kts | 305° |
| 2026-05-04 19:17 | 49.09314 | 14.68073 | 33934 ft | 453 kts | 305° |
| 2026-05-04 19:18 | 49.13055 | 14.60461 | 33933 ft | 453 kts | 305° |
| 2026-05-04 19:18 | 49.16842 | 14.52745 | 33934 ft | 453 kts | 305° |
| 2026-05-04 19:19 | 49.20611 | 14.45011 | 33935 ft | 454 kts | 305° |
| 2026-05-04 19:19 | 49.24360 | 14.37282 | 33935 ft | 455 kts | 305° |
| 2026-05-04 19:20 | 49.28114 | 14.29501 | 33940 ft | 454 kts | 304° |
| 2026-05-04 19:20 | 49.31858 | 14.21704 | 33938 ft | 454 kts | 304° |
| 2026-05-04 19:21 | 49.35628 | 14.13844 | 33940 ft | 454 kts | 304° |
| 2026-05-04 19:21 | 49.39365 | 14.06041 | 33935 ft | 455 kts | 304° |
| 2026-05-04 19:22 | 49.43098 | 13.98220 | 33940 ft | 455 kts | 304° |
| 2026-05-04 19:22 | 49.46870 | 13.90299 | 33949 ft | 456 kts | 304° |
| 2026-05-04 19:23 | 49.50594 | 13.82456 | 33952 ft | 455 kts | 303° |
| 2026-05-04 19:23 | 49.54317 | 13.74589 | 33951 ft | 455 kts | 304° |
| 2026-05-04 19:24 | 49.58043 | 13.66695 | 33950 ft | 455 kts | 303° |
| 2026-05-04 19:24 | 49.61760 | 13.58796 | 33949 ft | 455 kts | 303° |
| 2026-05-04 19:25 | 49.65456 | 13.50916 | 33948 ft | 456 kts | 303° |
| 2026-05-04 19:25 | 49.69121 | 13.43082 | 33952 ft | 456 kts | 303° |
| 2026-05-04 19:26 | 49.72861 | 13.35063 | 33955 ft | 456 kts | 303° |
| 2026-05-04 19:26 | 49.76579 | 13.27042 | 33958 ft | 455 kts | 302° |
| 2026-05-04 19:27 | 49.80265 | 13.19068 | 33952 ft | 456 kts | 303° |
| 2026-05-04 19:27 | 49.83951 | 13.11086 | 33953 ft | 456 kts | 303° |
| 2026-05-04 19:28 | 49.87629 | 13.03103 | 33953 ft | 456 kts | 303° |
| 2026-05-04 19:28 | 49.91313 | 12.95082 | 33960 ft | 456 kts | 303° |
| 2026-05-04 19:29 | 49.94963 | 12.87113 | 33968 ft | 456 kts | 303° |
| 2026-05-04 19:29 | 49.98648 | 12.79039 | 33973 ft | 456 kts | 303° |
| 2026-05-04 19:30 | 50.02301 | 12.71011 | 33977 ft | 456 kts | 303° |
| 2026-05-04 19:30 | 50.05969 | 12.62925 | 33977 ft | 456 kts | 302° |
| 2026-05-04 19:31 | 50.09598 | 12.54894 | 33971 ft | 456 kts | 302° |
| 2026-05-04 19:31 | 50.13261 | 12.46808 | 33971 ft | 456 kts | 303° |
| 2026-05-04 19:32 | 50.16792 | 12.38625 | 33972 ft | 455 kts | 299° |
| 2026-05-04 19:32 | 50.19800 | 12.29869 | 33969 ft | 452 kts | 292° |
| 2026-05-04 19:33 | 50.22144 | 12.20815 | 33968 ft | 450 kts | 287° |
| 2026-05-04 19:33 | 50.24239 | 12.11552 | 33960 ft | 450 kts | 287° |
| 2026-05-04 19:34 | 50.26334 | 12.02354 | 33966 ft | 451 kts | 287° |
| 2026-05-04 19:34 | 50.28452 | 11.93173 | 33972 ft | 450 kts | 287° |
| 2026-05-04 19:35 | 50.30558 | 11.84017 | 33973 ft | 450 kts | 287° |
| 2026-05-04 19:35 | 50.32669 | 11.74760 | 33973 ft | 450 kts | 287° |
| 2026-05-04 19:36 | 50.34763 | 11.65527 | 33975 ft | 450 kts | 287° |
| 2026-05-04 19:36 | 50.36847 | 11.56283 | 33968 ft | 450 kts | 287° |
| 2026-05-04 19:37 | 50.38923 | 11.47034 | 33965 ft | 449 kts | 287° |
| 2026-05-04 19:37 | 50.40980 | 11.37810 | 33967 ft | 449 kts | 287° |
| 2026-05-04 19:38 | 50.43023 | 11.28639 | 33968 ft | 448 kts | 286° |
| 2026-05-04 19:38 | 50.45081 | 11.19389 | 33970 ft | 448 kts | 285° |
| 2026-05-04 19:39 | 50.47130 | 11.10104 | 33974 ft | 448 kts | 285° |
| 2026-05-04 19:39 | 50.49152 | 11.00882 | 33982 ft | 448 kts | 285° |
| 2026-05-04 19:40 | 50.51161 | 10.91658 | 33978 ft | 447 kts | 285° |
| 2026-05-04 19:40 | 50.53175 | 10.82383 | 33973 ft | 447 kts | 285° |
| 2026-05-04 19:41 | 50.55241 | 10.73223 | 33970 ft | 447 kts | 287° |
| 2026-05-04 19:41 | 50.57353 | 10.63953 | 33969 ft | 446 kts | 286° |
| 2026-05-04 19:42 | 50.59415 | 10.54820 | 33969 ft | 447 kts | 286° |
| 2026-05-04 19:42 | 50.61498 | 10.45591 | 33900 ft | 448 kts | 286° |
| 2026-05-04 19:42 | 50.62534 | 10.40983 | 33088 ft | 451 kts | 286° |
| 2026-05-04 19:43 | 50.63361 | 10.36349 | 32240 ft | 442 kts | 278° |
| 2026-05-04 19:43 | 50.63696 | 10.31649 | 31433 ft | 442 kts | 269° |
| 2026-05-04 19:43 | 50.63543 | 10.26826 | 30594 ft | 442 kts | 260° |
| 2026-05-04 19:43 | 50.62895 | 10.22098 | 29765 ft | 442 kts | 251° |
| 2026-05-04 19:44 | 50.61788 | 10.17637 | 28954 ft | 444 kts | 243° |
| 2026-05-04 19:44 | 50.60331 | 10.13266 | 28128 ft | 447 kts | 240° |
| 2026-05-04 19:44 | 50.58849 | 10.09024 | 27325 ft | 451 kts | 240° |
| 2026-05-04 19:44 | 50.57338 | 10.04719 | 26515 ft | 455 kts | 240° |
| 2026-05-04 19:45 | 50.55873 | 10.00293 | 25710 ft | 458 kts | 243° |
| 2026-05-04 19:45 | 50.54580 | 9.95758 | 25173 ft | 457 kts | 246° |
| 2026-05-04 19:45 | 50.53389 | 9.91161 | 24963 ft | 449 kts | 244° |
| 2026-05-04 19:45 | 50.51910 | 9.86922 | 24777 ft | 447 kts | 238° |
| 2026-05-04 19:46 | 50.50275 | 9.82770 | 23719 ft | 460 kts | 237° |
| 2026-05-04 19:46 | 50.48577 | 9.78535 | 22623 ft | 450 kts | 237° |
| 2026-05-04 19:46 | 50.46961 | 9.74439 | 21540 ft | 432 kts | 238° |
| 2026-05-04 19:46 | 50.45449 | 9.70546 | 20483 ft | 416 kts | 238° |
| 2026-05-04 19:47 | 50.44008 | 9.66801 | 19434 ft | 402 kts | 238° |
| 2026-05-04 19:47 | 50.42594 | 9.63105 | 18374 ft | 390 kts | 238° |
| 2026-05-04 19:47 | 50.41225 | 9.59521 | 17328 ft | 380 kts | 238° |
| 2026-05-04 19:47 | 50.39683 | 9.56270 | 16258 ft | 370 kts | 223° |
| 2026-05-04 19:48 | 50.37602 | 9.54124 | 15233 ft | 363 kts | 204° |
| 2026-05-04 19:48 | 50.35200 | 9.53116 | 14183 ft | 357 kts | 187° |
| 2026-05-04 19:48 | 50.32769 | 9.53247 | 13157 ft | 353 kts | 174° |
| 2026-05-04 19:48 | 50.30370 | 9.53817 | 12118 ft | 348 kts | 173° |
| 2026-05-04 19:49 | 50.28006 | 9.54410 | 11138 ft | 341 kts | 173° |
| 2026-05-04 19:49 | 50.25730 | 9.54971 | 10458 ft | 327 kts | 173° |
| 2026-05-04 19:49 | 50.23531 | 9.55501 | 10054 ft | 306 kts | 173° |
| 2026-05-04 19:49 | 50.21522 | 9.55977 | 9958 ft | 281 kts | 173° |
| 2026-05-04 19:50 | 50.19646 | 9.56261 | 9946 ft | 266 kts | 181° |
| 2026-05-04 19:50 | 50.17804 | 9.56221 | 9948 ft | 260 kts | 184° |
| 2026-05-04 19:50 | 50.15990 | 9.56110 | 9949 ft | 260 kts | 184° |
| 2026-05-04 19:50 | 50.14249 | 9.55989 | 9946 ft | 247 kts | 184° |
| 2026-05-04 19:51 | 50.12554 | 9.55871 | 9951 ft | 242 kts | 184° |
| 2026-05-04 19:51 | 50.10885 | 9.55762 | 9945 ft | 240 kts | 184° |
| 2026-05-04 19:51 | 50.09213 | 9.55654 | 9718 ft | 237 kts | 184° |
| 2026-05-04 19:51 | 50.07561 | 9.55549 | 9324 ft | 239 kts | 184° |
| 2026-05-04 19:52 | 50.05928 | 9.55440 | 8967 ft | 239 kts | 184° |
| 2026-05-04 19:52 | 50.04264 | 9.55325 | 8627 ft | 238 kts | 184° |
| 2026-05-04 19:52 | 50.02611 | 9.55205 | 8285 ft | 238 kts | 184° |
| 2026-05-04 19:52 | 50.00960 | 9.55082 | 7952 ft | 237 kts | 184° |
| 2026-05-04 19:53 | 49.99312 | 9.54948 | 7618 ft | 236 kts | 185° |
| 2026-05-04 19:53 | 49.97726 | 9.54410 | 7256 ft | 235 kts | 208° |
| 2026-05-04 19:53 | 49.96553 | 9.52707 | 6982 ft | 232 kts | 241° |
| 2026-05-04 19:53 | 49.96175 | 9.50309 | 6970 ft | 237 kts | 268° |
| 2026-05-04 19:54 | 49.96248 | 9.47753 | 6965 ft | 240 kts | 274° |
| 2026-05-04 19:54 | 49.96415 | 9.45148 | 6961 ft | 240 kts | 275° |
| 2026-05-04 19:54 | 49.96596 | 9.42565 | 6960 ft | 240 kts | 275° |
| 2026-05-04 19:54 | 49.96779 | 9.40045 | 6958 ft | 240 kts | 275° |
| 2026-05-04 19:55 | 49.96961 | 9.37498 | 6957 ft | 240 kts | 275° |
| 2026-05-04 19:55 | 49.97140 | 9.34939 | 6956 ft | 239 kts | 274° |
| 2026-05-04 19:55 | 49.97314 | 9.32407 | 6956 ft | 239 kts | 274° |
| 2026-05-04 19:55 | 49.97488 | 9.29869 | 6956 ft | 239 kts | 274° |
| 2026-05-04 19:56 | 49.97662 | 9.27333 | 6957 ft | 239 kts | 274° |
| 2026-05-04 19:56 | 49.97840 | 9.24748 | 6955 ft | 239 kts | 274° |
| 2026-05-04 19:56 | 49.98019 | 9.22186 | 6880 ft | 236 kts | 274° |
| 2026-05-04 19:56 | 49.98195 | 9.19705 | 6538 ft | 237 kts | 274° |
| 2026-05-04 19:57 | 49.98369 | 9.17201 | 6183 ft | 238 kts | 274° |
| 2026-05-04 19:57 | 49.98540 | 9.14644 | 5869 ft | 237 kts | 274° |
| 2026-05-04 19:57 | 49.98703 | 9.12117 | 5564 ft | 235 kts | 274° |
| 2026-05-04 19:57 | 49.98854 | 9.09648 | 5264 ft | 234 kts | 274° |
| 2026-05-04 19:58 | 49.98998 | 9.07171 | 5017 ft | 230 kts | 274° |
| 2026-05-04 19:58 | 49.99137 | 9.04681 | 4989 ft | 232 kts | 274° |
| 2026-05-04 19:58 | 49.99276 | 9.02189 | 4984 ft | 232 kts | 274° |
| 2026-05-04 19:58 | 49.99417 | 8.99706 | 4982 ft | 232 kts | 275° |
| 2026-05-04 19:59 | 49.99816 | 8.97367 | 4956 ft | 232 kts | 300° |
| 2026-05-04 19:59 | 50.00948 | 8.95635 | 4787 ft | 229 kts | 332° |
| 2026-05-04 19:59 | 50.02490 | 8.95121 | 4435 ft | 232 kts | 5° |
| 2026-05-04 19:59 | 50.03968 | 8.95982 | 4131 ft | 233 kts | 37° |
| 2026-05-04 20:00 | 50.04906 | 8.97871 | 3998 ft | 231 kts | 65° |
| 2026-05-04 20:00 | 50.05442 | 9.00230 | 3995 ft | 235 kts | 72° |
| 2026-05-04 20:00 | 50.05894 | 9.02679 | 3988 ft | 236 kts | 73° |
| 2026-05-04 20:00 | 50.06323 | 9.05121 | 3983 ft | 235 kts | 73° |
| 2026-05-04 20:01 | 50.06745 | 9.07547 | 3980 ft | 235 kts | 73° |
| 2026-05-04 20:01 | 50.07172 | 9.09996 | 3980 ft | 235 kts | 74° |
| 2026-05-04 20:01 | 50.07610 | 9.12477 | 3980 ft | 235 kts | 73° |
| 2026-05-04 20:01 | 50.08039 | 9.14893 | 3979 ft | 236 kts | 73° |
| 2026-05-04 20:02 | 50.08569 | 9.17290 | 3962 ft | 234 kts | 58° |
| 2026-05-04 20:02 | 50.09720 | 9.19036 | 3964 ft | 230 kts | 25° |
| 2026-05-04 20:02 | 50.11241 | 9.19523 | 3969 ft | 228 kts | 352° |
| 2026-05-04 20:02 | 50.12692 | 9.18659 | 3976 ft | 226 kts | 320° |
| 2026-05-04 20:03 | 50.13604 | 9.16744 | 3983 ft | 226 kts | 289° |
| 2026-05-04 20:03 | 50.13917 | 9.14321 | 3992 ft | 228 kts | 277° |
| 2026-05-04 20:03 | 50.14047 | 9.11858 | 3986 ft | 229 kts | 272° |
| 2026-05-04 20:03 | 50.13879 | 9.09406 | 3986 ft | 230 kts | 259° |
| 2026-05-04 20:04 | 50.13522 | 9.07027 | 3984 ft | 230 kts | 257° |
| 2026-05-04 20:04 | 50.13147 | 9.04619 | 3981 ft | 230 kts | 259° |
| 2026-05-04 20:04 | 50.13028 | 9.02133 | 3979 ft | 229 kts | 271° |
| 2026-05-04 20:04 | 50.13053 | 8.99659 | 3978 ft | 229 kts | 270° |
| 2026-05-04 20:05 | 50.12931 | 8.97212 | 3978 ft | 230 kts | 261° |
| 2026-05-04 20:05 | 50.12560 | 8.94844 | 3979 ft | 230 kts | 255° |
| 2026-05-04 20:05 | 50.12098 | 8.92451 | 3979 ft | 230 kts | 253° |
| 2026-05-04 20:05 | 50.11595 | 8.90125 | 3968 ft | 220 kts | 251° |
| 2026-05-04 20:06 | 50.11098 | 8.87989 | 3972 ft | 213 kts | 250° |
| 2026-05-04 20:06 | 50.10593 | 8.85893 | 3910 ft | 203 kts | 250° |
| 2026-05-04 20:06 | 50.10098 | 8.83872 | 3681 ft | 199 kts | 251° |
| 2026-05-04 20:06 | 50.09609 | 8.81879 | 3417 ft | 198 kts | 251° |
| 2026-05-04 20:07 | 50.09136 | 8.79945 | 3164 ft | 196 kts | 251° |
| 2026-05-04 20:07 | 50.08657 | 8.77984 | 2901 ft | 194 kts | 251° |
| 2026-05-04 20:07 | 50.08181 | 8.76025 | 2644 ft | 192 kts | 251° |
| 2026-05-04 20:07 | 50.07719 | 8.74120 | 2397 ft | 190 kts | 251° |
| 2026-05-04 20:08 | 50.07263 | 8.72230 | 2150 ft | 189 kts | 251° |
| 2026-05-04 20:08 | 50.06797 | 8.70295 | 1921 ft | 198 kts | 252° |
| 2026-05-04 20:08 | 50.06315 | 8.68292 | 1659 ft | 199 kts | 251° |
| 2026-05-04 20:08 | 50.05841 | 8.66322 | 1396 ft | 198 kts | 251° |
| 2026-05-04 20:09 | 50.05382 | 8.64412 | 1219 ft | 191 kts | 251° |
| 2026-05-04 20:09 | 50.04943 | 8.62578 | 1006 ft | 181 kts | 250° |
| 2026-05-04 20:09 | 50.04523 | 8.60871 | 830 ft | 162 kts | 251° |
| 2026-05-04 20:09 | 50.04154 | 8.59317 | 562 ft | 152 kts | 250° |
| 2026-05-04 20:10 | 50.03826 | 8.57934 | 379 ft | 138 kts | 250° |
| 2026-05-04 20:10 | 50.03530 | 8.56673 | 343 ft | 113 kts | 251° |
| 2026-05-04 20:10 | 50.03319 | 8.55777 | 337 ft | 64 kts | 250° |
| 2026-05-04 20:10 | 50.03214 | 8.55342 | 335 ft | 34 kts | 250° |
| 2026-05-04 20:11 | 50.03178 | 8.54989 | 332 ft | 33 kts | 275° |
| 2026-05-04 20:11 | 50.03204 | 8.54740 | 332 ft | 0 kts | 280° |
| 2026-05-04 20:12 | 50.03206 | 8.54721 | 332 ft | 8 kts | 280° |
| 2026-05-04 20:12 | 50.03214 | 8.54645 | 332 ft | 5 kts | 281° |
| 2026-05-04 20:12 | 50.03231 | 8.54575 | 332 ft | 8 kts | 299° |
| 2026-05-04 20:12 | 50.03275 | 8.54507 | 332 ft | 10 kts | 330° |
| 2026-05-04 20:13 | 50.03334 | 8.54465 | 332 ft | 11 kts | 341° |
| 2026-05-04 20:13 | 50.03337 | 8.54463 | 332 ft | 0 kts | 342° |
| 2026-05-04 20:16 | 50.03339 | 8.54462 | 332 ft | 1 kts | 342° |
| 2026-05-04 20:16 | 50.03404 | 8.54428 | 333 ft | 27 kts | 341° |
| 2026-05-04 20:16 | 50.03577 | 8.54328 | 337 ft | 19 kts | 340° |
| 2026-05-04 20:16 | 50.03670 | 8.54369 | 338 ft | 16 kts | 69° |
| 2026-05-04 20:17 | 50.03711 | 8.54535 | 339 ft | 16 kts | 69° |
| 2026-05-04 20:17 | 50.03749 | 8.54697 | 341 ft | 17 kts | 70° |
| 2026-05-04 20:17 | 50.03789 | 8.54866 | 344 ft | 16 kts | 70° |
| 2026-05-04 20:17 | 50.03829 | 8.55030 | 345 ft | 16 kts | 70° |
| 2026-05-04 20:18 | 50.03865 | 8.55184 | 349 ft | 15 kts | 70° |
| 2026-05-04 20:18 | 50.03899 | 8.55323 | 349 ft | 13 kts | 70° |
| 2026-05-04 20:18 | 50.03903 | 8.55342 | 349 ft | 0 kts | 70° |
| 2026-05-04 20:22 | 50.03904 | 8.55345 | 350 ft | 1 kts | 70° |
| 2026-05-04 20:23 | 50.03909 | 8.55367 | 350 ft | 3 kts | 70° |
| 2026-05-04 20:23 | 50.03919 | 8.55406 | 350 ft | 5 kts | 70° |
| 2026-05-04 20:23 | 50.03933 | 8.55466 | 350 ft | 6 kts | 70° |
| 2026-05-04 20:23 | 50.03952 | 8.55545 | 350 ft | 9 kts | 70° |
| 2026-05-04 20:24 | 50.03977 | 8.55650 | 351 ft | 11 kts | 70° |
| 2026-05-04 20:24 | 50.04006 | 8.55770 | 350 ft | 13 kts | 70° |
| 2026-05-04 20:24 | 50.04041 | 8.55914 | 351 ft | 14 kts | 70° |
| 2026-05-04 20:24 | 50.04074 | 8.56056 | 353 ft | 14 kts | 70° |
| 2026-05-04 20:25 | 50.04108 | 8.56201 | 356 ft | 14 kts | 70° |
| 2026-05-04 20:25 | 50.04143 | 8.56345 | 357 ft | 15 kts | 70° |
| 2026-05-04 20:25 | 50.04182 | 8.56506 | 359 ft | 17 kts | 70° |
| 2026-05-04 20:25 | 50.04225 | 8.56686 | 361 ft | 18 kts | 70° |
| 2026-05-04 20:26 | 50.04273 | 8.56799 | 365 ft | 11 kts | 23° |
| 2026-05-04 20:26 | 50.04335 | 8.56823 | 368 ft | 10 kts | 12° |
| 2026-05-04 20:26 | 50.04407 | 8.56845 | 369 ft | 10 kts | 8° |
| 2026-05-04 20:26 | 50.04481 | 8.56864 | 371 ft | 11 kts | 13° |
| 2026-05-04 20:27 | 50.04556 | 8.56891 | 372 ft | 11 kts | 13° |
| 2026-05-04 20:27 | 50.04628 | 8.56919 | 374 ft | 12 kts | 17° |
| 2026-05-04 20:27 | 50.04708 | 8.56973 | 375 ft | 12 kts | 25° |
| 2026-05-04 20:27 | 50.04789 | 8.57029 | 377 ft | 12 kts | 24° |
| 2026-05-04 20:28 | 50.04852 | 8.57076 | 378 ft | 6 kts | 21° |
| 2026-05-04 20:28 | 50.04868 | 8.57063 | 378 ft | 2 kts | 315° |
| 2026-05-04 20:28 | 50.04882 | 8.57033 | 379 ft | 4 kts | 300° |
| 2026-05-04 20:28 | 50.04894 | 8.56997 | 379 ft | 0 kts | 295° |